This is the latest recevied weather packets stored in our database for station/object AK6MW. If no packets are shown the sender has not sent any weather packets the latest 10 day(s).
| Time | Temp. | Humidity | Pressure | Rain* | Wind** | Luminosity | Snow |
|---|---|---|---|---|---|---|---|
| 1777263522 | 6.11° C | 83% | 1014.2 hPa | - | - | - | - |
| 1777262922 | 6.11° C | 83% | 1014.1 hPa | - | - | - | - |
| 1777258745 | 6.11° C | 81% | 1013.4 hPa | - | - | - | - |
| 1777257523 | 6.67° C | 79% | 1013.5 hPa | - | - | - | - |
| 1777253922 | 7.22° C | 79% | 1013.4 hPa | - | - | - | - |
| 1777251522 | 7.22° C | 79% | 1013.3 hPa | - | - | - | - |
| 1777250923 | 7.22° C | 78% | 1013.4 hPa | - | - | - | - |
| 1777246724 | 9.44° C | 67% | 1013.1 hPa | - | - | - | - |
| 1777244322 | 9.44° C | 70% | 1013.4 hPa | - | - | - | - |
| 1777243723 | 9.44° C | 69% | 1013.3 hPa | - | - | - | - |
| 1777243123 | 9.44° C | 70% | 1013.3 hPa | - | - | - | - |
| 1777242542 | 8.89° C | 67% | 1013.5 hPa | - | - | - | - |
| 1777240722 | 8.33° C | 73% | 1013.4 hPa | - | - | - | - |
| 1777237762 | 7.78° C | 79% | 1013.5 hPa | - | - | - | - |
| 1777237122 | 7.22° C | 78% | 1013.4 hPa | - | - | - | - |
| 1777234722 | 7.78° C | 78% | 1013.3 hPa | - | - | - | - |
| 1777233542 | 8.33° C | 76% | 1013.3 hPa | - | - | - | - |
| 1777226922 | 5.56° C | 99% | 1013.4 hPa | - | - | - | - |
| 1777222723 | 4.44° C | 99% | 1012.5 hPa | - | - | - | - |
| 1777220922 | 4.44° C | 99% | 1012.4 hPa | - | - | - | - |
| 1777216722 | 3.33° C | 99% | 1011.7 hPa | - | - | - | - |
| 1777216123 | 2.78° C | 99% | 1011.6 hPa | - | - | - | - |
| 1777211943 | 2.78° C | 99% | 1011.1 hPa | - | - | - | - |
| 1777210721 | 2.78° C | 99% | 1010.8 hPa | - | - | - | - |
| 1777208922 | 3.33° C | 99% | 1010.6 hPa | - | - | - | - |
* Rain since midnight (hover to see other rain measurements)
** Current wind speed in m/s (hover to see current wind gust speed)